createdAt,value
2019-02-26T00:00:03.181Z,0
2019-02-26T00:01:03.871Z,0
2019-02-26T00:02:03.052Z,0
2019-02-26T00:03:05.098Z,0
2019-02-26T00:04:03.939Z,0
2019-02-26T00:05:03.931Z,0
2019-02-26T00:06:04.090Z,0
2019-02-26T00:07:03.514Z,0
2019-02-26T00:08:03.055Z,1.1
2019-02-26T00:09:04.104Z,1.1
2019-02-26T00:10:07.367Z,2.5
2019-02-26T00:11:10.993Z,2.5
2019-02-26T00:12:03.096Z,2.5
2019-02-26T00:13:02.981Z,2.5
2019-02-26T00:14:03.323Z,1.1
2019-02-26T00:15:03.132Z,1.1
2019-02-26T00:16:20.053Z,1.1
2019-02-26T00:17:21.433Z,0
2019-02-26T00:18:07.228Z,2.5
2019-02-26T00:19:14.552Z,0
2019-02-26T00:20:17.658Z,0
2019-02-26T00:21:05.300Z,0
2019-02-26T00:22:03.051Z,2.5
2019-02-26T00:23:04.688Z,2.5
2019-02-26T00:24:16.756Z,0
2019-02-26T00:25:18.359Z,1.1
2019-02-26T00:26:03.204Z,0
2019-02-26T00:27:09.909Z,0
2019-02-26T00:28:03.119Z,0
2019-02-26T00:29:08.656Z,1.1
2019-02-26T00:30:03.239Z,2.5
2019-02-26T00:31:06.297Z,2.5
2019-02-26T00:32:03.090Z,1.1
2019-02-26T00:33:05.628Z,1.1
2019-02-26T00:34:03.070Z,1.1
2019-02-26T00:35:04.606Z,1.1
2019-02-26T00:36:15.529Z,1.1
2019-02-26T00:37:08.713Z,1.1
2019-02-26T00:38:03.785Z,1.1
2019-02-26T00:39:07.532Z,2.5
2019-02-26T00:40:02.691Z,3.6
2019-02-26T00:41:06.354Z,2.5
2019-02-26T00:42:05.621Z,2.5
2019-02-26T00:43:06.843Z,1.1
2019-02-26T00:44:06.832Z,1.1
2019-02-26T00:45:08.174Z,1.1
2019-02-26T00:46:10.538Z,0
2019-02-26T00:47:09.330Z,0
2019-02-26T00:48:03.853Z,1.1
2019-02-26T00:49:07.863Z,1.1
2019-02-26T00:50:16.552Z,1.1
2019-02-26T00:51:03.441Z,2.5
2019-02-26T00:52:15.736Z,2.5
2019-02-26T00:53:04.302Z,1.1
2019-02-26T00:54:04.439Z,2.5
2019-02-26T00:55:09.709Z,1.1
2019-02-26T00:56:10.562Z,0
2019-02-26T00:57:14.107Z,1.1
2019-02-26T00:58:12.994Z,1.1
2019-02-26T00:59:02.989Z,0
2019-02-26T01:00:12.509Z,2.5
2019-02-26T01:01:03.069Z,2.5
2019-02-26T01:02:03.722Z,2.5
2019-02-26T01:03:15.420Z,2.5
2019-02-26T01:04:03.005Z,2.5
2019-02-26T01:05:15.869Z,2.5
2019-02-26T01:06:08.216Z,2.5
2019-02-26T01:07:07.798Z,2.5
2019-02-26T01:08:03.913Z,2.5
2019-02-26T01:09:11.480Z,3.6
2019-02-26T01:10:03.109Z,5
2019-02-26T01:11:08.676Z,3.6
2019-02-26T01:12:02.991Z,3.6
2019-02-26T01:13:07.579Z,2.5
2019-02-26T01:14:03.818Z,3.6
2019-02-26T01:15:14.172Z,5
2019-02-26T01:16:03.809Z,5
2019-02-26T01:17:03.963Z,3.6
2019-02-26T01:18:05.931Z,3.6
2019-02-26T01:19:03.573Z,1.1
2019-02-26T01:20:06.024Z,2.5
2019-02-26T01:21:04.620Z,2.5
2019-02-26T01:22:03.345Z,2.5
2019-02-26T01:23:02.923Z,1.1
2019-02-26T01:24:08.839Z,0
2019-02-26T01:25:03.025Z,1.1
2019-02-26T01:26:03.739Z,1.1
2019-02-26T01:27:03.246Z,0
2019-02-26T01:28:03.791Z,1.1
2019-02-26T01:29:03.507Z,1.1
2019-02-26T01:30:03.775Z,3.6
2019-02-26T01:31:07.613Z,3.6
2019-02-26T01:32:03.674Z,2.5
2019-02-26T01:33:10.007Z,1.1
2019-02-26T01:34:03.639Z,1.1
2019-02-26T01:35:13.106Z,1.1
2019-02-26T01:36:03.272Z,0
2019-02-26T01:37:12.163Z,0
2019-02-26T01:38:03.820Z,1.1
2019-02-26T01:39:03.017Z,1.1
2019-02-26T01:40:21.595Z,2.5
2019-02-26T01:41:02.966Z,1.1
2019-02-26T01:42:03.792Z,0
2019-02-26T01:43:05.897Z,1.1
2019-02-26T01:44:03.639Z,0
2019-02-26T01:45:03.545Z,1.1
2019-02-26T01:46:03.587Z,1.1
2019-02-26T01:47:04.999Z,1.1
2019-02-26T01:48:18.742Z,1.1
2019-02-26T01:49:04.620Z,0
2019-02-26T01:50:16.285Z,1.1
2019-02-26T01:51:03.704Z,1.1
2019-02-26T01:52:03.411Z,1.1
2019-02-26T01:53:03.727Z,1.1
2019-02-26T01:54:16.821Z,1.1
2019-02-26T01:55:03.147Z,1.1
2019-02-26T01:56:05.498Z,1.1
2019-02-26T01:57:03.314Z,0
2019-02-26T01:58:03.698Z,0
2019-02-26T01:59:03.380Z,0
2019-02-26T02:00:07.229Z,1.1
2019-02-26T02:01:03.320Z,1.1
2019-02-26T02:02:03.845Z,0
2019-02-26T02:03:03.670Z,1.1
2019-02-26T02:04:03.867Z,1.1
2019-02-26T02:05:07.343Z,0
2019-02-26T02:06:03.728Z,0
2019-02-26T02:07:06.309Z,0
2019-02-26T02:08:03.923Z,0
2019-02-26T02:09:03.337Z,0
2019-02-26T02:10:03.920Z,0
2019-02-26T02:11:09.621Z,0
2019-02-26T02:12:11.221Z,0
2019-02-26T02:13:11.582Z,0
2019-02-26T02:14:17.109Z,0
2019-02-26T02:15:03.779Z,0
2019-02-26T02:16:09.201Z,0
2019-02-26T02:17:13.801Z,0
2019-02-26T02:18:06.420Z,1.1
2019-02-26T02:19:03.546Z,1.1
2019-02-26T02:20:21.679Z,1.1
2019-02-26T02:21:02.699Z,1.1
2019-02-26T02:22:03.601Z,1.1
2019-02-26T02:23:07.359Z,1.1
2019-02-26T02:24:22.321Z,1.1
2019-02-26T02:25:03.393Z,1.1
2019-02-26T02:26:15.739Z,1.1
2019-02-26T02:27:03.509Z,1.1
2019-02-26T02:28:04.829Z,1.1
2019-02-26T02:29:03.205Z,1.1
2019-02-26T02:30:03.881Z,1.1
2019-02-26T02:31:03.406Z,1.1
2019-02-26T02:32:08.020Z,1.1
2019-02-26T02:33:03.225Z,2.5
2019-02-26T02:34:03.830Z,1.1
2019-02-26T02:35:19.563Z,1.1
2019-02-26T02:36:03.429Z,1.1
2019-02-26T02:37:03.233Z,1.1
2019-02-26T02:38:05.265Z,1.1
2019-02-26T02:39:03.411Z,1.1
2019-02-26T02:40:03.839Z,1.1
2019-02-26T02:41:03.201Z,1.1
2019-02-26T02:42:03.761Z,1.1
2019-02-26T02:43:23.015Z,1.1
2019-02-26T02:44:03.349Z,2.5
2019-02-26T02:45:21.436Z,2.5
2019-02-26T02:46:03.523Z,2.5
2019-02-26T02:47:11.482Z,2.5
2019-02-26T02:48:14.324Z,1.1
2019-02-26T02:49:18.042Z,1.1
2019-02-26T02:50:18.760Z,1.1
2019-02-26T02:51:14.191Z,1.1
2019-02-26T02:52:12.214Z,1.1
2019-02-26T02:53:04.324Z,1.1
2019-02-26T02:54:03.108Z,1.1
2019-02-26T02:55:19.495Z,1.1
2019-02-26T02:56:18.026Z,1.1
2019-02-26T02:57:10.281Z,1.1
2019-02-26T02:58:03.893Z,1.1
2019-02-26T02:59:16.619Z,0
2019-02-26T03:00:08.968Z,0
2019-02-26T03:01:03.126Z,0
2019-02-26T03:02:03.407Z,0
2019-02-26T03:03:02.722Z,0
2019-02-26T03:04:03.942Z,0
2019-02-26T03:05:03.111Z,0
2019-02-26T03:06:12.562Z,0
2019-02-26T03:07:03.558Z,0
2019-02-26T03:08:03.777Z,0
2019-02-26T03:09:03.077Z,1.1
2019-02-26T03:10:12.310Z,1.1
2019-02-26T03:11:03.501Z,3.6
2019-02-26T03:12:03.299Z,2.5
2019-02-26T03:13:03.540Z,1.1
2019-02-26T03:14:08.122Z,2.5
2019-02-26T03:15:10.370Z,1.1
2019-02-26T03:16:02.905Z,0
2019-02-26T03:17:20.298Z,2.5
2019-02-26T03:18:17.023Z,0
2019-02-26T03:19:17.111Z,0
2019-02-26T03:20:10.352Z,0
2019-02-26T03:21:05.206Z,1.1
2019-02-26T03:22:02.798Z,0
2019-02-26T03:23:20.397Z,1.1
2019-02-26T03:24:10.701Z,0
2019-02-26T03:25:03.479Z,0
2019-02-26T03:26:03.119Z,0
2019-02-26T03:27:03.674Z,0
2019-02-26T03:28:03.204Z,0
2019-02-26T03:29:04.213Z,0
2019-02-26T03:30:03.026Z,0
2019-02-26T03:31:02.780Z,0
2019-02-26T03:32:03.402Z,0
2019-02-26T03:33:05.465Z,1.1
2019-02-26T03:34:26.166Z,0
2019-02-26T03:35:23.035Z,0
2019-02-26T03:36:19.351Z,2.5
2019-02-26T03:37:11.307Z,0
2019-02-26T03:38:04.022Z,0
2019-02-26T03:39:03.661Z,1.1
2019-02-26T03:40:08.860Z,1.1
2019-02-26T03:41:04.023Z,1.1
2019-02-26T03:42:03.744Z,1.1
2019-02-26T03:43:16.376Z,1.1
2019-02-26T03:44:09.053Z,0
2019-02-26T03:45:04.133Z,0
2019-02-26T03:46:02.895Z,0
2019-02-26T03:47:03.307Z,0
2019-02-26T03:48:03.556Z,1.1
2019-02-26T03:49:03.956Z,0
2019-02-26T03:50:09.648Z,0
2019-02-26T03:51:03.063Z,0
2019-02-26T03:52:03.508Z,0
2019-02-26T03:53:03.732Z,0
2019-02-26T03:54:03.819Z,1.1
2019-02-26T03:55:19.357Z,1.1
2019-02-26T03:56:20.650Z,1.1
2019-02-26T03:57:03.087Z,1.1
2019-02-26T03:58:03.874Z,1.1
2019-02-26T03:59:12.067Z,1.1
2019-02-26T04:00:20.415Z,1.1
2019-02-26T04:01:21.676Z,1.1
2019-02-26T04:02:03.753Z,0
2019-02-26T04:03:17.743Z,0
2019-02-26T04:04:07.990Z,0
2019-02-26T04:05:09.166Z,1.1
2019-02-26T04:06:12.439Z,0
2019-02-26T04:07:10.963Z,1.1
2019-02-26T04:08:04.865Z,1.1
2019-02-26T04:09:03.219Z,1.1
2019-02-26T04:10:03.470Z,1.1
2019-02-26T04:11:02.686Z,1.1
2019-02-26T04:12:03.918Z,1.1
2019-02-26T04:13:03.119Z,0
2019-02-26T04:14:03.747Z,0
2019-02-26T04:15:03.360Z,0
2019-02-26T04:16:05.029Z,0
2019-02-26T04:17:09.334Z,0
2019-02-26T04:18:03.477Z,0
2019-02-26T04:19:09.556Z,0
2019-02-26T04:20:06.600Z,0
2019-02-26T04:21:21.160Z,0
2019-02-26T04:22:03.442Z,0
2019-02-26T04:23:03.386Z,1.1
2019-02-26T04:24:11.597Z,2.5
2019-02-26T04:25:09.680Z,1.1
2019-02-26T04:26:03.210Z,0
2019-02-26T04:27:03.032Z,0
2019-02-26T04:28:11.413Z,0
2019-02-26T04:29:03.336Z,0
2019-02-26T04:30:17.068Z,1.1
2019-02-26T04:31:03.647Z,0
2019-02-26T04:32:03.798Z,2.5
2019-02-26T04:33:14.282Z,2.5
2019-02-26T04:34:08.952Z,2.5
2019-02-26T04:35:03.257Z,2.5
2019-02-26T04:36:03.439Z,2.5
2019-02-26T04:37:13.100Z,1.1
2019-02-26T04:38:06.633Z,0
2019-02-26T04:39:03.294Z,0
2019-02-26T04:40:14.416Z,0
2019-02-26T04:41:16.193Z,0
2019-02-26T04:42:20.580Z,0
2019-02-26T04:43:13.127Z,0
2019-02-26T04:44:06.580Z,0
2019-02-26T04:45:09.927Z,0
2019-02-26T04:46:13.885Z,0
2019-02-26T04:47:06.293Z,0
2019-02-26T04:48:03.735Z,0
2019-02-26T04:49:03.933Z,1.1
2019-02-26T04:50:09.429Z,1.1
2019-02-26T04:51:03.266Z,1.1
2019-02-26T04:52:17.677Z,1.1
2019-02-26T04:53:11.580Z,1.1
2019-02-26T04:54:03.818Z,1.1
2019-02-26T04:55:03.715Z,1.1
2019-02-26T04:56:15.300Z,0
2019-02-26T04:57:04.024Z,0
2019-02-26T04:58:03.363Z,0
2019-02-26T04:59:17.099Z,0
2019-02-26T05:00:11.021Z,0
2019-02-26T05:01:19.251Z,0
2019-02-26T05:02:03.631Z,0
2019-02-26T05:03:20.245Z,0
2019-02-26T05:04:03.335Z,0
2019-02-26T05:05:03.079Z,0
2019-02-26T05:06:11.167Z,0
2019-02-26T05:07:19.499Z,0
2019-02-26T05:08:17.900Z,0
2019-02-26T05:09:10.839Z,0
2019-02-26T05:10:03.604Z,1.1
2019-02-26T05:11:02.952Z,1.1
2019-02-26T05:12:03.755Z,0
2019-02-26T05:13:10.068Z,0
2019-02-26T05:14:03.503Z,1.1
2019-02-26T05:15:03.978Z,0
2019-02-26T05:16:03.697Z,1.1
2019-02-26T05:17:03.558Z,1.1
2019-02-26T05:18:03.189Z,2.5
2019-02-26T05:19:03.425Z,1.1
2019-02-26T05:20:19.148Z,1.1
2019-02-26T05:21:13.232Z,0
2019-02-26T05:22:07.345Z,1.1
2019-02-26T05:23:06.642Z,1.1
2019-02-26T05:24:03.370Z,1.1
2019-02-26T05:25:19.927Z,1.1
2019-02-26T05:26:20.919Z,1.1
2019-02-26T05:27:03.245Z,2.5
2019-02-26T05:28:17.764Z,2.5
2019-02-26T05:29:03.661Z,2.5
2019-02-26T05:30:03.356Z,2.5
2019-02-26T05:31:17.600Z,1.1
2019-02-26T05:32:09.507Z,2.5
2019-02-26T05:33:05.883Z,1.1
2019-02-26T05:34:03.289Z,1.1
2019-02-26T05:35:03.510Z,2.5
2019-02-26T05:36:17.257Z,1.1
2019-02-26T05:37:14.182Z,2.5
2019-02-26T05:38:09.868Z,2.5
2019-02-26T05:39:03.196Z,3.6
2019-02-26T05:40:03.851Z,2.5
2019-02-26T05:41:03.342Z,2.5
2019-02-26T05:42:06.628Z,2.5
2019-02-26T05:43:07.038Z,3.6
2019-02-26T05:44:11.065Z,3.6
2019-02-26T05:45:09.788Z,2.5
2019-02-26T05:46:04.380Z,2.5
2019-02-26T05:47:03.892Z,2.5
2019-02-26T05:48:03.408Z,5
2019-02-26T05:49:19.687Z,5
2019-02-26T05:50:16.966Z,5
2019-02-26T05:51:11.792Z,2.5
2019-02-26T05:52:07.468Z,3.6
2019-02-26T05:53:13.668Z,3.6
2019-02-26T05:54:24.601Z,2.5
2019-02-26T05:55:03.806Z,2.5
2019-02-26T05:56:03.459Z,2.5
2019-02-26T05:57:32.965Z,2.5
2019-02-26T05:58:03.751Z,3.6
2019-02-26T05:59:21.823Z,1.1
2019-02-26T06:00:03.894Z,2.5
2019-02-26T06:01:03.488Z,2.5
2019-02-26T06:02:03.024Z,2.5
2019-02-26T06:03:18.915Z,1.1
2019-02-26T06:04:19.637Z,1.1
2019-02-26T06:05:02.980Z,0
2019-02-26T06:06:03.478Z,0
2019-02-26T06:07:05.103Z,1.1
2019-02-26T06:08:03.367Z,0
2019-02-26T06:09:08.199Z,1.1
2019-02-26T06:10:03.309Z,2.5
2019-02-26T06:11:03.759Z,1.1
2019-02-26T06:12:03.416Z,2.5
2019-02-26T06:13:15.909Z,2.5
2019-02-26T06:14:13.011Z,2.5
2019-02-26T06:15:08.776Z,1.1
2019-02-26T06:16:07.883Z,1.1
2019-02-26T06:17:03.844Z,0
2019-02-26T06:18:03.342Z,0
2019-02-26T06:19:03.627Z,0
2019-02-26T06:20:11.304Z,0
2019-02-26T06:21:03.162Z,0
2019-02-26T06:22:03.123Z,0
2019-02-26T06:23:02.935Z,0
2019-02-26T06:24:04.015Z,0
2019-02-26T06:25:24.945Z,0
2019-02-26T06:26:18.190Z,0
2019-02-26T06:27:03.438Z,0
2019-02-26T06:28:20.609Z,0
2019-02-26T06:29:03.496Z,0
2019-02-26T06:30:12.929Z,0
2019-02-26T06:31:03.890Z,0
2019-02-26T06:32:12.193Z,0
2019-02-26T06:33:16.573Z,0
2019-02-26T06:34:21.501Z,0
2019-02-26T06:35:19.133Z,0
2019-02-26T06:36:06.705Z,0
2019-02-26T06:37:16.660Z,0
2019-02-26T06:38:11.854Z,0
2019-02-26T06:39:06.293Z,0
2019-02-26T06:40:07.756Z,0
2019-02-26T06:41:03.483Z,0
2019-02-26T06:42:14.673Z,0
2019-02-26T06:43:03.357Z,0
2019-02-26T06:44:03.563Z,0
2019-02-26T06:45:17.050Z,0
2019-02-26T06:46:14.256Z,0
2019-02-26T06:47:09.341Z,0
2019-02-26T06:48:03.041Z,0
2019-02-26T06:49:03.830Z,2.5
2019-02-26T06:50:18.512Z,2.5
2019-02-26T06:51:07.426Z,1.1
2019-02-26T06:52:03.040Z,2.5
2019-02-26T06:53:21.426Z,1.1
2019-02-26T06:54:03.516Z,2.5
2019-02-26T06:55:08.049Z,1.1
2019-02-26T06:56:03.228Z,1.1
2019-02-26T06:57:03.553Z,0
2019-02-26T06:58:03.170Z,1.1
2019-02-26T06:59:12.449Z,0
2019-02-26T07:00:04.565Z,1.1
2019-02-26T07:01:03.186Z,1.1
2019-02-26T07:02:03.682Z,1.1
2019-02-26T07:03:03.071Z,2.5
2019-02-26T07:04:03.834Z,1.1
2019-02-26T07:05:03.219Z,0
2019-02-26T07:06:05.263Z,0
2019-02-26T07:07:14.761Z,2.5
2019-02-26T07:08:06.857Z,2.5
2019-02-26T07:09:03.787Z,3.6
2019-02-26T07:10:03.168Z,2.5
2019-02-26T07:11:04.319Z,2.5
2019-02-26T07:12:03.211Z,2.5
2019-02-26T07:13:14.307Z,2.5
2019-02-26T07:14:10.558Z,1.1
2019-02-26T07:15:03.242Z,2.5
2019-02-26T07:16:05.573Z,3.6
2019-02-26T07:17:03.199Z,3.6
2019-02-26T07:18:19.849Z,2.5
2019-02-26T07:19:16.776Z,3.6
2019-02-26T07:20:03.632Z,2.5
2019-02-26T07:21:03.054Z,2.5
2019-02-26T07:22:16.425Z,3.6
2019-02-26T07:23:15.636Z,5
2019-02-26T07:24:03.802Z,3.6
2019-02-26T07:25:03.151Z,5
2019-02-26T07:26:03.188Z,3.6
2019-02-26T07:27:14.054Z,3.6
2019-02-26T07:28:03.278Z,3.6
2019-02-26T07:29:17.731Z,3.6
2019-02-26T07:30:02.681Z,5
2019-02-26T07:31:12.380Z,2.5
2019-02-26T07:32:03.934Z,3.6
2019-02-26T07:33:15.232Z,3.6
2019-02-26T07:34:03.995Z,3.6
2019-02-26T07:35:16.959Z,5
2019-02-26T07:36:04.508Z,5
2019-02-26T07:37:15.956Z,3.6
2019-02-26T07:38:03.893Z,6.1
2019-02-26T07:39:05.549Z,3.6
2019-02-26T07:40:18.701Z,3.6
2019-02-26T07:41:06.512Z,2.5
2019-02-26T07:42:03.871Z,5
2019-02-26T07:43:22.403Z,5
2019-02-26T07:44:03.045Z,5
2019-02-26T07:45:03.131Z,6.1
2019-02-26T07:46:02.768Z,3.6
2019-02-26T07:47:11.462Z,6.1
2019-02-26T07:48:02.999Z,5
2019-02-26T07:49:07.692Z,3.6
2019-02-26T07:50:17.436Z,5
2019-02-26T07:51:03.595Z,3.6
2019-02-26T07:52:09.039Z,3.6
2019-02-26T07:53:03.622Z,6.1
2019-02-26T07:54:03.874Z,2.5
2019-02-26T07:55:17.511Z,2.5
2019-02-26T07:56:08.969Z,3.6
2019-02-26T07:57:04.216Z,3.6
2019-02-26T07:58:06.823Z,6.1
2019-02-26T07:59:15.258Z,8.6
2019-02-26T08:00:03.088Z,3.6
2019-02-26T08:01:02.988Z,2.5
2019-02-26T08:02:13.715Z,3.6
2019-02-26T08:03:05.007Z,7.2
2019-02-26T08:04:03.386Z,3.6
2019-02-26T08:05:03.700Z,1.1
2019-02-26T08:06:14.216Z,2.5
2019-02-26T08:07:04.066Z,6.1
2019-02-26T08:08:03.292Z,6.1
2019-02-26T08:09:21.670Z,3.6
2019-02-26T08:10:16.884Z,1.1
2019-02-26T08:11:03.299Z,2.5
2019-02-26T08:12:13.939Z,2.5
2019-02-26T08:13:08.271Z,3.6
2019-02-26T08:14:02.899Z,1.1
2019-02-26T08:15:15.829Z,2.5
2019-02-26T08:16:05.498Z,2.5
2019-02-26T08:17:06.565Z,2.5
2019-02-26T08:18:05.654Z,2.5
2019-02-26T08:19:02.617Z,2.5
2019-02-26T08:20:15.215Z,5
2019-02-26T08:21:05.490Z,3.6
2019-02-26T08:22:03.923Z,3.6
2019-02-26T08:23:03.182Z,5
2019-02-26T08:24:03.980Z,3.6
2019-02-26T08:25:03.233Z,3.6
2019-02-26T08:26:03.662Z,2.5
2019-02-26T08:27:13.738Z,3.6
2019-02-26T08:28:03.892Z,1.1
2019-02-26T08:29:12.614Z,6.1
2019-02-26T08:30:03.755Z,7.2
2019-02-26T08:31:05.708Z,9.7
2019-02-26T08:32:03.661Z,9.7
2019-02-26T08:33:07.777Z,6.1
2019-02-26T08:34:03.724Z,7.2
2019-02-26T08:35:03.121Z,5
2019-02-26T08:36:03.573Z,3.6
2019-02-26T08:37:03.734Z,6.1
2019-02-26T08:38:06.624Z,6.1
2019-02-26T08:39:03.142Z,6.1
2019-02-26T08:40:03.316Z,3.6
2019-02-26T08:41:03.458Z,3.6
2019-02-26T08:42:03.870Z,2.5
2019-02-26T08:43:03.162Z,1.1
2019-02-26T08:44:02.837Z,1.1
2019-02-26T08:45:03.877Z,6.1
2019-02-26T08:46:03.911Z,5
2019-02-26T08:47:21.074Z,3.6
2019-02-26T08:48:03.266Z,5
2019-02-26T08:49:22.085Z,2.5
2019-02-26T08:50:15.203Z,3.6
2019-02-26T08:51:21.721Z,1.1
2019-02-26T08:52:02.958Z,3.6
2019-02-26T08:53:03.254Z,3.6
2019-02-26T08:54:02.940Z,0
2019-02-26T08:55:03.170Z,0
2019-02-26T08:56:04.458Z,2.5
2019-02-26T08:57:03.143Z,1.1
2019-02-26T08:58:03.631Z,3.6
2019-02-26T08:59:03.943Z,3.6
2019-02-26T09:00:03.514Z,6.1
2019-02-26T09:01:03.467Z,6.1
2019-02-26T09:02:03.293Z,6.1
2019-02-26T09:03:03.720Z,6.1
2019-02-26T09:04:03.577Z,6.1
2019-02-26T09:05:12.198Z,6.1
2019-02-26T09:06:16.525Z,6.1
2019-02-26T09:07:03.111Z,6.1
2019-02-26T09:08:03.291Z,6.1
2019-02-26T09:09:07.106Z,1.1
2019-02-26T09:10:03.302Z,1.1
2019-02-26T09:11:14.361Z,0
2019-02-26T09:12:04.123Z,2.5
2019-02-26T09:13:03.568Z,1.1
2019-02-26T09:14:16.802Z,2.5
2019-02-26T09:15:03.551Z,3.6
2019-02-26T09:16:08.210Z,3.6
2019-02-26T09:17:05.010Z,2.5
2019-02-26T09:18:03.423Z,3.6
2019-02-26T09:19:02.761Z,2.5
2019-02-26T09:20:14.915Z,0
2019-02-26T09:21:02.914Z,1.1
2019-02-26T09:22:03.071Z,1.1
2019-02-26T09:23:03.607Z,2.5
2019-02-26T09:24:08.094Z,0
2019-02-26T09:25:03.240Z,1.1
2019-02-26T09:26:07.337Z,0
2019-02-26T09:27:05.389Z,3.6
2019-02-26T09:28:03.575Z,3.6
2019-02-26T09:29:03.092Z,1.1
2019-02-26T09:30:16.382Z,1.1
2019-02-26T09:31:14.375Z,3.6
2019-02-26T09:32:18.393Z,3.6
2019-02-26T09:33:11.372Z,3.6
2019-02-26T09:34:03.396Z,1.1
2019-02-26T09:35:05.195Z,3.6
2019-02-26T09:36:03.504Z,3.6
2019-02-26T09:37:08.284Z,5
2019-02-26T09:38:02.956Z,2.5
2019-02-26T09:39:15.529Z,5
2019-02-26T09:40:05.170Z,5
2019-02-26T09:41:03.159Z,1.1
2019-02-26T09:42:09.471Z,0
2019-02-26T09:43:03.568Z,1.1
2019-02-26T09:44:11.911Z,1.1
2019-02-26T09:45:03.420Z,3.6
2019-02-26T09:46:19.309Z,2.5
2019-02-26T09:47:07.986Z,1.1
2019-02-26T09:48:02.977Z,2.5
2019-02-26T09:49:12.973Z,3.6
2019-02-26T09:50:03.055Z,2.5
2019-02-26T09:51:16.752Z,2.5
2019-02-26T09:52:06.914Z,3.6
2019-02-26T09:53:03.593Z,1.1
2019-02-26T09:54:03.769Z,2.5
2019-02-26T09:55:03.576Z,1.1
2019-02-26T09:56:03.860Z,1.1
2019-02-26T09:57:03.256Z,1.1
2019-02-26T09:58:03.371Z,3.6
2019-02-26T09:59:14.876Z,1.1
2019-02-26T10:00:03.745Z,1.1
2019-02-26T10:01:03.388Z,3.6
2019-02-26T10:02:06.533Z,3.6
2019-02-26T10:03:15.200Z,3.6
2019-02-26T10:04:05.721Z,2.5
2019-02-26T10:05:04.013Z,3.6
2019-02-26T10:06:03.434Z,2.5
2019-02-26T10:07:14.565Z,2.5
2019-02-26T10:08:05.703Z,3.6
2019-02-26T10:09:03.675Z,1.1
2019-02-26T10:10:14.291Z,2.5
2019-02-26T10:11:05.354Z,2.5
2019-02-26T10:12:15.915Z,1.1
2019-02-26T10:13:05.111Z,2.5
2019-02-26T10:14:15.212Z,3.6
2019-02-26T10:15:05.624Z,2.5
2019-02-26T10:16:09.176Z,1.1
2019-02-26T10:17:03.433Z,3.6
2019-02-26T10:18:09.706Z,0
2019-02-26T10:19:03.210Z,3.6
2019-02-26T10:20:09.688Z,3.6
2019-02-26T10:21:03.480Z,2.5
2019-02-26T10:22:14.007Z,5
2019-02-26T10:23:06.694Z,5
2019-02-26T10:24:04.925Z,2.5
2019-02-26T10:25:03.222Z,2.5
2019-02-26T10:26:11.038Z,2.5
2019-02-26T10:27:16.552Z,3.6
2019-02-26T10:28:21.905Z,1.1
2019-02-26T10:29:08.243Z,3.6
2019-02-26T10:30:16.429Z,5
2019-02-26T10:31:10.008Z,5
2019-02-26T10:32:03.706Z,2.5
2019-02-26T10:33:03.341Z,2.5
2019-02-26T10:34:26.210Z,2.5
2019-02-26T10:35:20.825Z,3.6
2019-02-26T10:36:18.507Z,2.5
2019-02-26T10:37:03.930Z,2.5
2019-02-26T10:38:11.974Z,1.1
2019-02-26T10:39:03.946Z,1.1
2019-02-26T10:40:03.263Z,2.5
2019-02-26T10:41:05.450Z,3.6
2019-02-26T10:42:03.192Z,3.6
2019-02-26T10:43:03.449Z,3.6
2019-02-26T10:44:03.183Z,1.1
2019-02-26T10:45:03.831Z,5
2019-02-26T10:46:04.003Z,2.5
2019-02-26T10:47:10.927Z,3.6
2019-02-26T10:48:03.596Z,6.1
2019-02-26T10:49:03.872Z,6.1
2019-02-26T10:50:04.140Z,3.6
2019-02-26T10:51:07.519Z,7.2
2019-02-26T10:52:03.224Z,7.2
2019-02-26T10:53:22.814Z,3.6
2019-02-26T10:54:18.295Z,1.1
2019-02-26T10:55:03.450Z,0
2019-02-26T10:56:03.863Z,2.5
2019-02-26T10:57:14.787Z,3.6
2019-02-26T10:58:13.576Z,6.1
2019-02-26T10:59:19.825Z,7.2
2019-02-26T11:00:11.127Z,7.2
2019-02-26T11:01:05.870Z,7.2
2019-02-26T11:02:03.760Z,7.2
2019-02-26T11:03:03.372Z,7.2
2019-02-26T11:04:05.027Z,7.2
2019-02-26T11:05:03.982Z,7.2
2019-02-26T11:06:19.252Z,7.2
2019-02-26T11:07:14.439Z,7.2
2019-02-26T11:08:10.121Z,7.2
2019-02-26T11:09:03.290Z,7.2
2019-02-26T11:10:03.192Z,9.7
2019-02-26T11:11:19.340Z,7.2
2019-02-26T11:12:08.982Z,8.6
2019-02-26T11:13:03.178Z,8.6
2019-02-26T11:14:19.585Z,7.2
2019-02-26T11:15:09.505Z,9.7
2019-02-26T11:16:03.470Z,7.2
2019-02-26T11:17:04.004Z,8.6
2019-02-26T11:18:03.036Z,9.7
2019-02-26T11:19:12.580Z,8.6
2019-02-26T11:20:08.071Z,8.6
2019-02-26T11:21:03.363Z,6.1
2019-02-26T11:22:04.653Z,6.1
2019-02-26T11:23:16.413Z,6.1
2019-02-26T11:24:11.478Z,8.6
2019-02-26T11:25:03.635Z,7.2
2019-02-26T11:26:18.902Z,8.6
2019-02-26T11:27:03.707Z,6.1
2019-02-26T11:28:13.232Z,6.1
2019-02-26T11:29:03.810Z,7.2
2019-02-26T11:30:05.408Z,8.6
2019-02-26T11:31:03.709Z,5
2019-02-26T11:32:15.843Z,7.2
2019-02-26T11:33:15.801Z,9.7
2019-02-26T11:34:13.660Z,7.2
2019-02-26T11:35:03.462Z,9.7
2019-02-26T11:36:15.823Z,6.1
2019-02-26T11:37:09.307Z,11.2
2019-02-26T11:38:03.381Z,8.6
2019-02-26T11:39:12.312Z,9.7
2019-02-26T11:40:05.859Z,9.7
2019-02-26T11:41:03.329Z,9.7
2019-02-26T11:42:03.409Z,12.2
2019-02-26T11:43:28.874Z,7.2
2019-02-26T11:44:25.914Z,7.2
2019-02-26T11:45:19.449Z,8.6
2019-02-26T11:46:08.994Z,9.7
2019-02-26T11:47:03.845Z,7.2
2019-02-26T11:48:09.136Z,7.2
2019-02-26T11:49:03.921Z,7.2
2019-02-26T11:50:12.020Z,7.2
2019-02-26T11:51:03.982Z,7.2
2019-02-26T11:52:04.945Z,7.2
2019-02-26T11:53:03.892Z,6.1
2019-02-26T11:54:17.739Z,7.2
2019-02-26T11:55:11.538Z,6.1
2019-02-26T11:56:03.526Z,9.7
2019-02-26T11:57:17.924Z,6.1
2019-02-26T11:58:22.355Z,8.6
2019-02-26T11:59:19.581Z,9.7
2019-02-26T12:00:09.396Z,9.7
2019-02-26T12:01:03.189Z,7.2
2019-02-26T12:02:06.764Z,8.6
2019-02-26T12:03:03.687Z,6.1
2019-02-26T12:04:17.240Z,5
2019-02-26T12:05:10.968Z,6.1
2019-02-26T12:06:03.414Z,6.1
2019-02-26T12:07:10.070Z,7.2
2019-02-26T12:08:02.942Z,5
2019-02-26T12:09:16.383Z,8.6
2019-02-26T12:10:14.986Z,6.1
2019-02-26T12:12:11.819Z,6.1
2019-02-26T12:13:03.724Z,5
2019-02-26T12:13:04.043Z,6.1
2019-02-26T12:14:03.604Z,7.2
2019-02-26T12:16:03.736Z,7.2
2019-02-26T12:17:03.129Z,9.7
2019-02-26T12:17:15.094Z,7.2
2019-02-26T12:18:03.773Z,8.6
2019-02-26T12:19:11.047Z,8.6
2019-02-26T12:20:03.971Z,6.1
2019-02-26T12:21:13.109Z,5
2019-02-26T12:22:06.378Z,5
2019-02-26T12:23:03.161Z,6.1
2019-02-26T12:24:12.757Z,6.1
2019-02-26T12:25:11.462Z,5
2019-02-26T12:26:04.292Z,5
2019-02-26T12:27:03.464Z,6.1
2019-02-26T12:28:13.919Z,1.1
2019-02-26T12:29:04.790Z,6.1
2019-02-26T12:30:03.846Z,3.6
2019-02-26T12:31:13.188Z,3.6
2019-02-26T12:32:05.147Z,1.1
2019-02-26T12:33:03.651Z,7.2
2019-02-26T12:34:03.481Z,7.2
2019-02-26T12:35:18.160Z,6.1
2019-02-26T12:36:10.581Z,8.6
2019-02-26T12:37:11.945Z,6.1
2019-02-26T12:38:21.739Z,7.2
2019-02-26T12:39:03.364Z,7.2
2019-02-26T12:40:03.224Z,5
2019-02-26T12:41:21.105Z,6.1
2019-02-26T12:42:03.208Z,5
2019-02-26T12:43:19.444Z,5
2019-02-26T12:44:16.391Z,8.6
2019-02-26T12:45:13.925Z,7.2
2019-02-26T12:46:09.276Z,7.2
2019-02-26T12:47:03.156Z,5
2019-02-26T12:48:03.497Z,7.2
2019-02-26T12:49:22.603Z,8.6
2019-02-26T12:50:11.919Z,5
2019-02-26T12:51:08.159Z,6.1
2019-02-26T12:52:03.861Z,5
2019-02-26T12:53:03.527Z,5
2019-02-26T12:54:15.925Z,5
2019-02-26T12:55:10.944Z,5
2019-02-26T12:56:09.237Z,2.5
2019-02-26T12:57:04.657Z,5
2019-02-26T12:58:04.096Z,7.2
2019-02-26T12:59:07.638Z,9.7
2019-02-26T13:00:03.917Z,8.6
2019-02-26T13:01:02.888Z,11.2
2019-02-26T13:02:25.698Z,11.2
2019-02-26T13:03:22.775Z,11.2
2019-02-26T13:04:03.077Z,11.2
2019-02-26T13:05:03.397Z,11.2
2019-02-26T13:08:03.651Z,11.2
2019-02-26T13:08:24.091Z,11.2
2019-02-26T13:09:03.613Z,9.7
2019-02-26T13:09:08.693Z,11.2
2019-02-26T13:10:05.367Z,8.6
2019-02-26T13:11:03.211Z,8.6
2019-02-26T13:12:03.280Z,8.6
2019-02-26T13:13:08.550Z,7.2
2019-02-26T13:14:02.896Z,7.2
2019-02-26T13:15:10.296Z,8.6
2019-02-26T13:16:02.827Z,8.6
2019-02-26T13:17:02.988Z,6.1
2019-02-26T13:18:03.943Z,7.2
2019-02-26T13:19:05.151Z,6.1
2019-02-26T13:20:11.589Z,7.2
2019-02-26T13:21:17.573Z,7.2
2019-02-26T13:22:20.553Z,8.6
2019-02-26T13:23:22.122Z,7.2
2019-02-26T13:24:27.045Z,8.6
2019-02-26T13:25:27.096Z,7.2
2019-02-26T13:26:22.702Z,6.1
2019-02-26T13:27:04.020Z,7.2
2019-02-26T13:28:03.466Z,6.1
2019-02-26T13:29:03.363Z,5
2019-02-26T13:30:03.515Z,5
2019-02-26T13:31:23.053Z,6.1
2019-02-26T13:32:03.568Z,6.1
2019-02-26T13:34:03.989Z,8.6
2019-02-26T13:35:08.547Z,8.6
2019-02-26T13:36:05.279Z,8.6
2019-02-26T13:37:03.713Z,6.1
2019-02-26T13:37:07.725Z,5
2019-02-26T13:38:03.186Z,6.1
2019-02-26T13:39:03.423Z,5
2019-02-26T13:40:03.876Z,6.1
2019-02-26T13:41:39.409Z,7.2
2019-02-26T13:42:19.936Z,6.1
2019-02-26T13:44:03.487Z,5
2019-02-26T13:45:03.469Z,3.6
2019-02-26T13:46:03.771Z,7.2
2019-02-26T13:47:02.949Z,7.2
2019-02-26T13:48:03.689Z,6.1
2019-02-26T13:49:03.990Z,6.1
2019-02-26T13:50:03.649Z,6.1
2019-02-26T13:51:03.604Z,6.1
2019-02-26T13:52:03.077Z,7.2
2019-02-26T13:53:03.387Z,6.1
2019-02-26T13:54:03.785Z,3.6
2019-02-26T13:55:03.402Z,6.1
2019-02-26T13:56:03.821Z,6.1
2019-02-26T13:57:03.191Z,8.6
2019-02-26T13:58:12.697Z,8.6
2019-02-26T13:59:03.221Z,7.2
2019-02-26T14:00:03.036Z,7.2
2019-02-26T14:01:03.504Z,7.2
2019-02-26T14:02:03.816Z,6.1